Belleville, New York
Current Conditions -  °F | °C
As of 11:56 PM on Saturday 25 Oct 2014 (Local Time) from KART Reporting Station
Broken Clouds Broken Clouds  
Wind Chill: 12°   Ceiling: 7000
Heat Index: 12°   Visibility: 10mi
Dew Point:   Wind: 12mph
Humidity: 59%   Direction: 270°W
Pressure: 29.53"   Gusts: NA
Location:  43.78°N, 76.12°W
Report Text: KART 260356Z AUTO 27010KT 10SM BKN070 12/04 A2953 RMK AO2 SLP997 T01170039
Loading
Personal Weather Stations






























Interactive Weather Map
Tropical Storm Tracking
New forecast layout! Learn more

10-Day Weather Forecast

Advertisements
Track Severe Weather on mobile